Hlavní strana
METAR-TAF:

METAR-TAF

Letiště :

Morristown, Tennessee, Spojené státy americké

zeměpisná šířka: 36-10-46N, zeměpisná délka: 083-22-32W, výška: 400 m

Aktuální stav počasí

Zpráva byla vytvořena před 10 minutami, v 08:55 UTC
Východní vítr 13 kt s nárazy do 22 kt
Teplota 5°C
Vlhkost vzduchu 93%
Tlak 1017 hPa
Viditelnost: 14.5 km
Polojasno ve výšce 3100 ft
Oblačno až skoro zataženo ve výšce 6500 ft
Zataženo ve výšce 7500 ft

METAR: KMOR 150855Z AUTO 10013G22KT 9SM SCT031 BKN065 OVC075 05/04 A3003 RMK A01 P0007

Čas: 03:05 (09:05 UTC)


TAF: chybějící

Stav a předpovědi počasí z více než 4 000 letišť (zprávy METAR a TAF).

Červené a žluté tečky na mapě představují dostupné meteorologické stanice.

Když kurzor umístíte na tečku, zobrazí se název stanice.

Pak kliknutím zobrazíte stav a předpověď počasí.

Chcete-li změnit mapu, kliknutím na zelené tlačítko se znaménkem +mapu přiblížíte, kliknutím na zelené tlačítko se znaménkem – mapu oddálíte a kliknutím na zelené šipky přejdete na sousední mapy.


METAR-TAF: